sensor_id;sensor_type;location;lat;lon;timestamp;P1;durP1;ratioP1;P2;durP2;ratioP2
47545;SDS011;50104;52.002;4.688;2023-03-23T00:02:27;5.10;;;2.75;;
47545;SDS011;50104;52.002;4.688;2023-03-23T00:07:33;4.63;;;2.92;;
47545;SDS011;50104;52.002;4.688;2023-03-23T00:12:35;8.23;;;3.35;;
47545;SDS011;50104;52.002;4.688;2023-03-23T00:17:35;4.90;;;3.03;;
47545;SDS011;50104;52.002;4.688;2023-03-23T00:22:37;6.60;;;2.92;;
47545;SDS011;50104;52.002;4.688;2023-03-23T00:27:38;4.75;;;2.67;;
47545;SDS011;50104;52.002;4.688;2023-03-23T00:32:39;3.10;;;2.17;;
47545;SDS011;50104;52.002;4.688;2023-03-23T00:37:40;3.22;;;2.38;;
47545;SDS011;50104;52.002;4.688;2023-03-23T00:42:41;6.57;;;2.50;;
47545;SDS011;50104;52.002;4.688;2023-03-23T01:00:39;5.18;;;2.40;;
47545;SDS011;50104;52.002;4.688;2023-03-23T01:05:40;4.25;;;2.67;;
47545;SDS011;50104;52.002;4.688;2023-03-23T01:10:41;6.72;;;2.53;;
47545;SDS011;50104;52.002;4.688;2023-03-23T01:15:42;4.53;;;2.00;;
47545;SDS011;50104;52.002;4.688;2023-03-23T01:20:43;3.78;;;2.15;;
47545;SDS011;50104;52.002;4.688;2023-03-23T01:25:44;5.95;;;2.53;;
47545;SDS011;50104;52.002;4.688;2023-03-23T01:30:45;5.43;;;2.33;;
47545;SDS011;50104;52.002;4.688;2023-03-23T01:35:46;3.75;;;2.38;;
47545;SDS011;50104;52.002;4.688;2023-03-23T01:40:46;2.70;;;2.22;;
47545;SDS011;50104;52.002;4.688;2023-03-23T01:45:47;3.28;;;2.17;;
47545;SDS011;50104;52.002;4.688;2023-03-23T01:55:54;2.53;;;2.00;;
47545;SDS011;50104;52.002;4.688;2023-03-23T02:00:57;6.32;;;2.40;;
47545;SDS011;50104;52.002;4.688;2023-03-23T02:06:03;2.20;;;1.67;;
47545;SDS011;50104;52.002;4.688;2023-03-23T02:11:11;3.13;;;2.10;;
47545;SDS011;50104;52.002;4.688;2023-03-23T02:16:23;1.88;;;1.77;;
47545;SDS011;50104;52.002;4.688;2023-03-23T02:26:59;4.63;;;1.85;;
47545;SDS011;50104;52.002;4.688;2023-03-23T02:50:42;2.63;;;1.85;;
47545;SDS011;50104;52.002;4.688;2023-03-23T02:55:47;4.22;;;1.60;;
47545;SDS011;50104;52.002;4.688;2023-03-23T03:00:49;4.95;;;1.95;;
47545;SDS011;50104;52.002;4.688;2023-03-23T03:06:25;2.95;;;1.70;;
47545;SDS011;50104;52.002;4.688;2023-03-23T03:11:45;2.95;;;1.75;;
47545;SDS011;50104;52.002;4.688;2023-03-23T03:16:56;3.70;;;2.30;;
47545;SDS011;50104;52.002;4.688;2023-03-23T03:22:14;4.20;;;2.25;;
47545;SDS011;50104;52.002;4.688;2023-03-23T03:27:17;4.90;;;2.60;;
47545;SDS011;50104;52.002;4.688;2023-03-23T03:32:21;3.80;;;2.15;;
47545;SDS011;50104;52.002;4.688;2023-03-23T03:37:34;7.55;;;2.42;;
47545;SDS011;50104;52.002;4.688;2023-03-23T03:42:38;4.80;;;2.25;;
47545;SDS011;50104;52.002;4.688;2023-03-23T03:47:41;5.35;;;2.05;;
47545;SDS011;50104;52.002;4.688;2023-03-23T03:52:42;3.80;;;1.70;;
47545;SDS011;50104;52.002;4.688;2023-03-23T03:57:43;6.05;;;2.10;;
47545;SDS011;50104;52.002;4.688;2023-03-23T04:02:45;5.70;;;1.80;;
47545;SDS011;50104;52.002;4.688;2023-03-23T04:07:51;4.00;;;1.83;;
47545;SDS011;50104;52.002;4.688;2023-03-23T04:12:52;3.88;;;1.75;;
47545;SDS011;50104;52.002;4.688;2023-03-23T04:17:53;7.07;;;1.67;;
47545;SDS011;50104;52.002;4.688;2023-03-23T04:22:56;6.75;;;1.63;;
47545;SDS011;50104;52.002;4.688;2023-03-23T04:27:57;9.35;;;2.08;;
47545;SDS011;50104;52.002;4.688;2023-03-23T04:33:00;6.10;;;1.38;;
47545;SDS011;50104;52.002;4.688;2023-03-23T04:38:01;8.77;;;1.90;;
47545;SDS011;50104;52.002;4.688;2023-03-23T04:43:02;6.40;;;1.90;;
47545;SDS011;50104;52.002;4.688;2023-03-23T04:48:05;9.07;;;1.98;;
47545;SDS011;50104;52.002;4.688;2023-03-23T04:53:06;7.90;;;2.28;;
47545;SDS011;50104;52.002;4.688;2023-03-23T04:58:07;5.35;;;1.92;;
47545;SDS011;50104;52.002;4.688;2023-03-23T05:03:08;6.03;;;2.00;;
47545;SDS011;50104;52.002;4.688;2023-03-23T05:08:09;7.13;;;1.90;;
47545;SDS011;50104;52.002;4.688;2023-03-23T05:13:12;11.63;;;2.55;;
47545;SDS011;50104;52.002;4.688;2023-03-23T05:18:13;6.22;;;1.95;;
47545;SDS011;50104;52.002;4.688;2023-03-23T05:23:14;6.72;;;2.50;;
47545;SDS011;50104;52.002;4.688;2023-03-23T05:28:15;10.73;;;2.75;;
47545;SDS011;50104;52.002;4.688;2023-03-23T05:33:16;10.55;;;2.80;;
47545;SDS011;50104;52.002;4.688;2023-03-23T05:38:17;7.82;;;3.15;;
47545;SDS011;50104;52.002;4.688;2023-03-23T05:43:18;5.40;;;2.35;;
47545;SDS011;50104;52.002;4.688;2023-03-23T05:48:19;7.05;;;2.13;;
47545;SDS011;50104;52.002;4.688;2023-03-23T05:53:20;8.55;;;2.38;;
47545;SDS011;50104;52.002;4.688;2023-03-23T05:58:21;6.07;;;2.33;;
47545;SDS011;50104;52.002;4.688;2023-03-23T06:03:21;8.57;;;2.50;;
47545;SDS011;50104;52.002;4.688;2023-03-23T06:08:22;6.60;;;2.45;;
47545;SDS011;50104;52.002;4.688;2023-03-23T06:13:24;7.82;;;3.13;;
47545;SDS011;50104;52.002;4.688;2023-03-23T06:18:25;8.98;;;2.90;;
47545;SDS011;50104;52.002;4.688;2023-03-23T06:23:30;10.70;;;2.70;;
47545;SDS011;50104;52.002;4.688;2023-03-23T06:28:32;8.07;;;2.70;;
47545;SDS011;50104;52.002;4.688;2023-03-23T06:33:34;11.63;;;3.40;;
47545;SDS011;50104;52.002;4.688;2023-03-23T06:38:38;10.38;;;3.95;;
47545;SDS011;50104;52.002;4.688;2023-03-23T06:43:39;5.35;;;2.72;;
47545;SDS011;50104;52.002;4.688;2023-03-23T06:48:40;8.77;;;3.50;;
47545;SDS011;50104;52.002;4.688;2023-03-23T06:53:42;8.05;;;2.92;;
47545;SDS011;50104;52.002;4.688;2023-03-23T06:58:44;11.95;;;2.25;;
47545;SDS011;50104;52.002;4.688;2023-03-23T07:03:56;9.43;;;2.58;;
47545;SDS011;50104;52.002;4.688;2023-03-23T07:08:58;5.78;;;2.80;;
47545;SDS011;50104;52.002;4.688;2023-03-23T07:13:59;10.50;;;2.88;;
47545;SDS011;50104;52.002;4.688;2023-03-23T07:19:00;5.32;;;2.30;;
47545;SDS011;50104;52.002;4.688;2023-03-23T07:24:00;8.73;;;1.88;;
47545;SDS011;50104;52.002;4.688;2023-03-23T07:29:01;11.63;;;2.80;;
47545;SDS011;50104;52.002;4.688;2023-03-23T07:34:02;10.68;;;2.38;;
47545;SDS011;50104;52.002;4.688;2023-03-23T07:39:04;8.18;;;1.83;;
47545;SDS011;50104;52.002;4.688;2023-03-23T07:44:05;6.85;;;1.83;;
47545;SDS011;50104;52.002;4.688;2023-03-23T07:49:06;6.22;;;1.98;;
47545;SDS011;50104;52.002;4.688;2023-03-23T07:54:08;7.78;;;1.90;;
47545;SDS011;50104;52.002;4.688;2023-03-23T07:59:09;4.22;;;1.85;;
47545;SDS011;50104;52.002;4.688;2023-03-23T08:04:10;8.23;;;2.30;;
47545;SDS011;50104;52.002;4.688;2023-03-23T08:09:13;8.13;;;2.17;;
47545;SDS011;50104;52.002;4.688;2023-03-23T08:14:14;9.43;;;2.58;;
47545;SDS011;50104;52.002;4.688;2023-03-23T08:19:15;13.38;;;3.78;;
47545;SDS011;50104;52.002;4.688;2023-03-23T08:24:16;12.48;;;3.08;;
47545;SDS011;50104;52.002;4.688;2023-03-23T08:29:19;9.13;;;2.42;;
47545;SDS011;50104;52.002;4.688;2023-03-23T08:34:20;7.70;;;2.55;;
47545;SDS011;50104;52.002;4.688;2023-03-23T08:39:21;9.82;;;4.18;;
47545;SDS011;50104;52.002;4.688;2023-03-23T08:44:23;9.23;;;2.65;;
47545;SDS011;50104;52.002;4.688;2023-03-23T08:49:24;10.20;;;2.55;;
47545;SDS011;50104;52.002;4.688;2023-03-23T08:54:25;10.15;;;2.80;;
47545;SDS011;50104;52.002;4.688;2023-03-23T08:59:26;9.45;;;2.95;;
47545;SDS011;50104;52.002;4.688;2023-03-23T09:04:28;9.98;;;2.30;;
47545;SDS011;50104;52.002;4.688;2023-03-23T09:09:30;16.17;;;2.22;;
47545;SDS011;50104;52.002;4.688;2023-03-23T09:14:32;11.32;;;2.00;;
47545;SDS011;50104;52.002;4.688;2023-03-23T09:19:33;10.73;;;2.25;;
47545;SDS011;50104;52.002;4.688;2023-03-23T09:24:35;16.55;;;3.58;;
47545;SDS011;50104;52.002;4.688;2023-03-23T09:29:36;11.18;;;2.25;;
47545;SDS011;50104;52.002;4.688;2023-03-23T09:34:38;10.55;;;2.33;;
47545;SDS011;50104;52.002;4.688;2023-03-23T09:39:39;8.48;;;2.40;;
47545;SDS011;50104;52.002;4.688;2023-03-23T09:50:04;11.40;;;3.08;;
47545;SDS011;50104;52.002;4.688;2023-03-23T09:55:18;6.10;;;1.77;;
47545;SDS011;50104;52.002;4.688;2023-03-23T10:00:23;8.77;;;1.95;;
47545;SDS011;50104;52.002;4.688;2023-03-23T10:05:37;9.27;;;1.80;;
47545;SDS011;50104;52.002;4.688;2023-03-23T10:15:51;11.00;;;1.92;;
47545;SDS011;50104;52.002;4.688;2023-03-23T10:20:57;9.50;;;1.95;;
47545;SDS011;50104;52.002;4.688;2023-03-23T10:26:09;7.00;;;1.85;;
47545;SDS011;50104;52.002;4.688;2023-03-23T10:31:23;13.68;;;2.65;;
47545;SDS011;50104;52.002;4.688;2023-03-23T10:36:42;10.60;;;2.65;;
47545;SDS011;50104;52.002;4.688;2023-03-23T10:42:30;15.90;;;2.73;;
47545;SDS011;50104;52.002;4.688;2023-03-23T10:47:33;11.13;;;2.83;;
47545;SDS011;50104;52.002;4.688;2023-03-23T10:52:39;12.85;;;2.50;;
47545;SDS011;50104;52.002;4.688;2023-03-23T10:57:45;6.97;;;2.05;;
47545;SDS011;50104;52.002;4.688;2023-03-23T11:08:11;11.73;;;2.40;;
47545;SDS011;50104;52.002;4.688;2023-03-23T11:13:17;11.02;;;2.38;;
47545;SDS011;50104;52.002;4.688;2023-03-23T11:18:25;10.50;;;2.60;;
47545;SDS011;50104;52.002;4.688;2023-03-23T11:23:37;10.57;;;2.20;;
47545;SDS011;50104;52.002;4.688;2023-03-23T11:34:09;10.75;;;2.13;;
47545;SDS011;50104;52.002;4.688;2023-03-23T11:39:32;10.70;;;2.10;;
47545;SDS011;50104;52.002;4.688;2023-03-23T11:44:53;12.00;;;3.30;;
47545;SDS011;50104;52.002;4.688;2023-03-23T11:56:05;10.13;;;2.33;;
47545;SDS011;50104;52.002;4.688;2023-03-23T12:23:20;4.80;;;1.52;;
47545;SDS011;50104;52.002;4.688;2023-03-23T12:34:01;9.07;;;1.48;;
47545;SDS011;50104;52.002;4.688;2023-03-23T12:44:57;6.03;;;1.60;;
47545;SDS011;50104;52.002;4.688;2023-03-23T12:50:16;12.52;;;2.53;;
47545;SDS011;50104;52.002;4.688;2023-03-23T12:55:42;9.23;;;1.73;;
47545;SDS011;50104;52.002;4.688;2023-03-23T13:06:34;10.53;;;1.87;;
47545;SDS011;50104;52.002;4.688;2023-03-23T13:11:46;9.38;;;1.88;;
47545;SDS011;50104;52.002;4.688;2023-03-23T13:22:37;8.57;;;1.95;;
47545;SDS011;50104;52.002;4.688;2023-03-23T13:27:58;9.35;;;2.70;;
47545;SDS011;50104;52.002;4.688;2023-03-23T13:33:04;6.30;;;1.45;;
47545;SDS011;50104;52.002;4.688;2023-03-23T13:38:45;11.65;;;2.22;;
47545;SDS011;50104;52.002;4.688;2023-03-23T13:43:44;14.93;;;3.05;;
47545;SDS011;50104;52.002;4.688;2023-03-23T13:48:46;8.70;;;2.10;;
47545;SDS011;50104;52.002;4.688;2023-03-23T13:54:06;11.30;;;1.90;;
47545;SDS011;50104;52.002;4.688;2023-03-23T14:04:30;6.93;;;2.42;;
47545;SDS011;50104;52.002;4.688;2023-03-23T14:09:34;8.23;;;1.95;;
47545;SDS011;50104;52.002;4.688;2023-03-23T14:19:54;7.68;;;2.53;;
47545;SDS011;50104;52.002;4.688;2023-03-23T14:25:02;14.73;;;2.78;;
47545;SDS011;50104;52.002;4.688;2023-03-23T14:30:14;7.50;;;1.92;;
47545;SDS011;50104;52.002;4.688;2023-03-23T14:35:23;8.98;;;1.60;;
47545;SDS011;50104;52.002;4.688;2023-03-23T14:40:33;10.20;;;1.85;;
47545;SDS011;50104;52.002;4.688;2023-03-23T14:45:34;9.98;;;1.63;;
47545;SDS011;50104;52.002;4.688;2023-03-23T14:50:37;9.05;;;1.90;;
47545;SDS011;50104;52.002;4.688;2023-03-23T14:55:41;15.00;;;2.63;;
47545;SDS011;50104;52.002;4.688;2023-03-23T15:00:48;9.82;;;2.17;;
47545;SDS011;50104;52.002;4.688;2023-03-23T15:05:59;9.18;;;1.75;;
47545;SDS011;50104;52.002;4.688;2023-03-23T15:11:20;9.20;;;2.25;;
47545;SDS011;50104;52.002;4.688;2023-03-23T15:16:28;8.50;;;2.23;;
47545;SDS011;50104;52.002;4.688;2023-03-23T15:21:34;9.18;;;1.83;;
47545;SDS011;50104;52.002;4.688;2023-03-23T15:26:53;9.73;;;2.10;;
47545;SDS011;50104;52.002;4.688;2023-03-23T15:32:12;8.15;;;2.00;;
47545;SDS011;50104;52.002;4.688;2023-03-23T15:37:21;8.93;;;2.17;;
47545;SDS011;50104;52.002;4.688;2023-03-23T15:42:28;11.43;;;2.45;;
47545;SDS011;50104;52.002;4.688;2023-03-23T15:47:37;7.97;;;1.83;;
47545;SDS011;50104;52.002;4.688;2023-03-23T15:52:41;7.70;;;2.10;;
47545;SDS011;50104;52.002;4.688;2023-03-23T15:57:43;11.43;;;2.78;;
47545;SDS011;50104;52.002;4.688;2023-03-23T16:02:44;10.68;;;1.88;;
47545;SDS011;50104;52.002;4.688;2023-03-23T16:07:47;10.95;;;2.47;;
47545;SDS011;50104;52.002;4.688;2023-03-23T16:12:49;8.57;;;1.85;;
47545;SDS011;50104;52.002;4.688;2023-03-23T16:17:51;13.13;;;2.75;;
47545;SDS011;50104;52.002;4.688;2023-03-23T16:22:52;5.95;;;1.67;;
47545;SDS011;50104;52.002;4.688;2023-03-23T16:27:53;13.02;;;2.20;;
47545;SDS011;50104;52.002;4.688;2023-03-23T16:32:54;9.88;;;2.42;;
47545;SDS011;50104;52.002;4.688;2023-03-23T16:37:55;11.70;;;2.42;;
47545;SDS011;50104;52.002;4.688;2023-03-23T16:42:57;12.50;;;2.95;;
47545;SDS011;50104;52.002;4.688;2023-03-23T16:47:58;11.50;;;2.88;;
47545;SDS011;50104;52.002;4.688;2023-03-23T16:53:00;11.00;;;2.00;;
47545;SDS011;50104;52.002;4.688;2023-03-23T16:58:02;11.05;;;2.60;;
47545;SDS011;50104;52.002;4.688;2023-03-23T17:03:04;10.27;;;1.88;;
47545;SDS011;50104;52.002;4.688;2023-03-23T17:08:06;13.32;;;3.15;;
47545;SDS011;50104;52.002;4.688;2023-03-23T17:13:07;11.73;;;1.85;;
47545;SDS011;50104;52.002;4.688;2023-03-23T17:18:08;9.00;;;2.03;;
47545;SDS011;50104;52.002;4.688;2023-03-23T17:23:09;5.72;;;1.52;;
47545;SDS011;50104;52.002;4.688;2023-03-23T17:28:10;6.18;;;2.00;;
47545;SDS011;50104;52.002;4.688;2023-03-23T17:33:11;5.60;;;2.70;;
47545;SDS011;50104;52.002;4.688;2023-03-23T17:38:12;7.35;;;1.67;;
47545;SDS011;50104;52.002;4.688;2023-03-23T17:43:13;6.75;;;2.20;;
47545;SDS011;50104;52.002;4.688;2023-03-23T17:48:14;5.32;;;1.80;;
47545;SDS011;50104;52.002;4.688;2023-03-23T17:53:15;6.35;;;2.05;;
47545;SDS011;50104;52.002;4.688;2023-03-23T17:58:17;4.45;;;1.95;;
47545;SDS011;50104;52.002;4.688;2023-03-23T18:03:18;7.57;;;2.10;;
47545;SDS011;50104;52.002;4.688;2023-03-23T18:08:19;7.28;;;2.72;;
47545;SDS011;50104;52.002;4.688;2023-03-23T18:13:20;7.45;;;2.70;;
47545;SDS011;50104;52.002;4.688;2023-03-23T18:18:26;10.13;;;2.40;;
47545;SDS011;50104;52.002;4.688;2023-03-23T18:23:27;7.40;;;2.25;;
47545;SDS011;50104;52.002;4.688;2023-03-23T18:34:11;4.70;;;2.15;;
47545;SDS011;50104;52.002;4.688;2023-03-23T18:39:11;7.38;;;2.33;;
47545;SDS011;50104;52.002;4.688;2023-03-23T18:44:12;5.82;;;2.20;;
47545;SDS011;50104;52.002;4.688;2023-03-23T18:49:13;7.90;;;2.20;;
47545;SDS011;50104;52.002;4.688;2023-03-23T18:54:14;7.25;;;2.00;;
47545;SDS011;50104;52.002;4.688;2023-03-23T18:59:16;7.15;;;2.00;;
47545;SDS011;50104;52.002;4.688;2023-03-23T19:04:17;9.52;;;2.05;;
47545;SDS011;50104;52.002;4.688;2023-03-23T19:09:21;6.82;;;1.90;;
47545;SDS011;50104;52.002;4.688;2023-03-23T19:14:23;10.80;;;2.72;;
47545;SDS011;50104;52.002;4.688;2023-03-23T19:19:24;10.30;;;2.53;;
47545;SDS011;50104;52.002;4.688;2023-03-23T19:24:25;8.40;;;2.47;;
47545;SDS011;50104;52.002;4.688;2023-03-23T19:29:29;9.57;;;2.58;;
47545;SDS011;50104;52.002;4.688;2023-03-23T19:34:30;7.10;;;2.45;;
47545;SDS011;50104;52.002;4.688;2023-03-23T19:39:31;9.90;;;3.53;;
47545;SDS011;50104;52.002;4.688;2023-03-23T19:44:33;11.27;;;3.10;;
47545;SDS011;50104;52.002;4.688;2023-03-23T19:49:34;10.93;;;2.80;;
47545;SDS011;50104;52.002;4.688;2023-03-23T19:54:35;9.52;;;3.10;;
47545;SDS011;50104;52.002;4.688;2023-03-23T19:59:37;9.82;;;3.25;;
47545;SDS011;50104;52.002;4.688;2023-03-23T20:04:38;10.88;;;4.35;;
47545;SDS011;50104;52.002;4.688;2023-03-23T20:09:40;11.88;;;3.95;;
47545;SDS011;50104;52.002;4.688;2023-03-23T20:14:41;13.20;;;4.13;;
47545;SDS011;50104;52.002;4.688;2023-03-23T20:19:44;16.60;;;4.03;;
47545;SDS011;50104;52.002;4.688;2023-03-23T20:24:45;10.57;;;3.80;;
47545;SDS011;50104;52.002;4.688;2023-03-23T20:29:46;12.85;;;3.75;;
47545;SDS011;50104;52.002;4.688;2023-03-23T20:34:47;10.30;;;4.85;;
47545;SDS011;50104;52.002;4.688;2023-03-23T20:39:48;14.20;;;3.88;;
47545;SDS011;50104;52.002;4.688;2023-03-23T20:44:50;11.55;;;5.28;;
47545;SDS011;50104;52.002;4.688;2023-03-23T20:49:51;9.93;;;4.47;;
47545;SDS011;50104;52.002;4.688;2023-03-23T20:54:52;14.07;;;4.95;;
47545;SDS011;50104;52.002;4.688;2023-03-23T20:59:54;10.32;;;4.88;;
47545;SDS011;50104;52.002;4.688;2023-03-23T21:04:55;15.57;;;4.93;;
47545;SDS011;50104;52.002;4.688;2023-03-23T21:09:57;10.60;;;4.63;;
47545;SDS011;50104;52.002;4.688;2023-03-23T21:14:58;15.68;;;4.93;;
47545;SDS011;50104;52.002;4.688;2023-03-23T21:19:59;14.05;;;4.38;;
47545;SDS011;50104;52.002;4.688;2023-03-23T21:25:00;14.38;;;4.57;;
47545;SDS011;50104;52.002;4.688;2023-03-23T21:30:02;10.88;;;4.10;;
47545;SDS011;50104;52.002;4.688;2023-03-23T21:35:04;10.70;;;3.90;;
47545;SDS011;50104;52.002;4.688;2023-03-23T21:40:10;10.18;;;4.68;;
47545;SDS011;50104;52.002;4.688;2023-03-23T21:45:16;6.80;;;3.10;;
47545;SDS011;50104;52.002;4.688;2023-03-23T21:50:19;9.75;;;3.75;;
47545;SDS011;50104;52.002;4.688;2023-03-23T21:55:21;11.63;;;3.03;;
47545;SDS011;50104;52.002;4.688;2023-03-23T22:00:22;13.00;;;3.83;;
47545;SDS011;50104;52.002;4.688;2023-03-23T22:05:28;7.97;;;3.42;;
47545;SDS011;50104;52.002;4.688;2023-03-23T22:10:29;8.95;;;3.92;;
47545;SDS011;50104;52.002;4.688;2023-03-23T22:15:30;10.05;;;3.47;;
47545;SDS011;50104;52.002;4.688;2023-03-23T22:20:31;7.22;;;3.20;;
47545;SDS011;50104;52.002;4.688;2023-03-23T22:25:32;6.82;;;2.85;;
47545;SDS011;50104;52.002;4.688;2023-03-23T22:30:35;7.65;;;2.97;;
47545;SDS011;50104;52.002;4.688;2023-03-23T22:35:36;5.88;;;2.67;;
47545;SDS011;50104;52.002;4.688;2023-03-23T22:40:37;8.43;;;2.70;;
47545;SDS011;50104;52.002;4.688;2023-03-23T22:45:41;6.32;;;2.92;;
47545;SDS011;50104;52.002;4.688;2023-03-23T22:50:43;9.68;;;3.45;;
47545;SDS011;50104;52.002;4.688;2023-03-23T22:55:46;9.90;;;3.58;;
47545;SDS011;50104;52.002;4.688;2023-03-23T23:00:50;7.95;;;3.55;;
47545;SDS011;50104;52.002;4.688;2023-03-23T23:05:57;9.48;;;3.33;;
47545;SDS011;50104;52.002;4.688;2023-03-23T23:11:00;9.75;;;3.05;;
47545;SDS011;50104;52.002;4.688;2023-03-23T23:16:02;5.90;;;2.60;;
47545;SDS011;50104;52.002;4.688;2023-03-23T23:21:06;12.07;;;4.25;;
47545;SDS011;50104;52.002;4.688;2023-03-23T23:26:13;9.65;;;3.90;;
47545;SDS011;50104;52.002;4.688;2023-03-23T23:31:19;7.32;;;2.95;;
47545;SDS011;50104;52.002;4.688;2023-03-23T23:36:28;7.28;;;2.60;;
47545;SDS011;50104;52.002;4.688;2023-03-23T23:41:31;10.02;;;3.30;;
47545;SDS011;50104;52.002;4.688;2023-03-23T23:46:33;6.68;;;3.50;;
47545;SDS011;50104;52.002;4.688;2023-03-23T23:51:34;6.05;;;3.00;;
47545;SDS011;50104;52.002;4.688;2023-03-23T23:56:36;6.00;;;3.13;;
